EmailTwitter


Observations de surface / Québec / EGXC

Régions: Québec | Canada | États-Unis | Europe | France | UK | Elsewhere
Station
Affichage
Infos & localisation pour EGXC | Aide pour décoder les METARs

Observations prises le 2017-02-24 à 09H50 UTC à CONINGSBY RAF, UK (EGXC)

Etat du ciel: partiellement nuageux.

Température: 5.0 Celsius

Point de rosée: 1.0 Celsius

Humidité relative: 75%

Facteur vent: 2.

Vents: Ouest-nord-ouest à 15 km/h ou 8 noeuds.

Pression au niveau moyen de la mer: 101.40 kilopascals.

Visibilité horizontale: 6.21 milles terrestres ou 9.94 kilomètres.

Hauteur du plafond: 853 mètres ( 2800 pieds ).

Observation METAR:

EGXC 240950Z 29008KT 9999 FEW018 BKN028 05/01 Q1014 BLU NOSIG=